KIND

Indianapolis International Airport

Airport
ICAO code
KIND
IATA Code
IND
Summary
ICAO Region
NAM
ICAO Territory
Location

Indianapolis, Indiana

Serving
Indianapolis
Elevation
797 ft
Coordinates
39° 42' 54" N , 86° 17' 46" W
KCC
Airport LOS
Parallel Runway Operation
Airport WX
Cumulonimbus
Metar
KIND 251254Z 32005KT 10SM SCT025 BKN070 21/17 A2985 RMK AO2 SLP104 T02060167 $

Indianapolis International Airport is a public airport located 7 nm southwest of the central business district of Indianapolis, a city in Marion County, Indiana, USA.

 

Airport map

Aerial View

SKYbrary Partners:

Safety knowledge contributed by: